createdAt,value
2018-06-15T00:18:07.491Z,20.40
2018-06-15T00:26:57.671Z,20.40
2018-06-15T00:38:59.740Z,20.40
2018-06-15T00:39:39.501Z,20.40
2018-06-15T00:46:15.273Z,20.40
2018-06-15T01:08:33.440Z,20.50
2018-06-15T01:09:07.439Z,20.50
2018-06-15T04:19:20.797Z,19.90
2018-06-15T04:19:54.860Z,20.00
2018-06-15T04:22:48.448Z,19.90
2018-06-15T04:45:12.827Z,20.20
2018-06-15T04:49:15.369Z,20.20
2018-06-15T04:57:37.216Z,20.30
2018-06-15T05:08:30.948Z,20.50
2018-06-15T05:09:20.936Z,20.50
2018-06-15T15:11:23.970Z,27.80
2018-06-15T15:21:17.432Z,28.10
2018-06-15T15:22:13.953Z,28.00
2018-06-15T15:30:20.799Z,28.00
2018-06-15T15:32:53.362Z,28.10
2018-06-15T15:33:30.193Z,28.10
2018-06-15T15:34:11.334Z,28.10
2018-06-15T15:34:46.393Z,28.10
2018-06-15T15:35:20.412Z,28.10
2018-06-15T15:35:54.527Z,28.10
2018-06-15T15:36:30.843Z,28.00
2018-06-15T19:24:02.800Z,24.00
2018-06-15T19:24:35.879Z,23.90
2018-06-15T19:25:08.941Z,23.90
2018-06-15T19:25:42.036Z,23.80
2018-06-15T19:26:15.079Z,23.80
2018-06-15T19:26:48.238Z,23.70
2018-06-15T19:27:21.253Z,23.70
2018-06-15T19:27:54.303Z,23.70
2018-06-15T19:28:27.350Z,23.70
2018-06-15T19:29:01.262Z,23.70
2018-06-15T19:29:34.214Z,23.60
2018-06-15T19:30:08.040Z,23.60
2018-06-15T19:30:41.188Z,23.60
2018-06-15T19:31:14.229Z,23.60
2018-06-15T19:31:47.287Z,23.60
2018-06-15T19:32:20.339Z,23.60
2018-06-15T19:32:53.384Z,23.60
2018-06-15T19:33:27.189Z,23.50
2018-06-15T19:34:01.002Z,23.50
2018-06-15T19:34:34.075Z,23.50
2018-06-15T19:35:07.126Z,23.50
2018-06-15T19:35:40.931Z,23.50
2018-06-15T19:36:13.968Z,23.50
2018-06-15T19:36:47.017Z,23.40
2018-06-15T19:37:20.061Z,23.40
2018-06-15T19:37:53.108Z,23.40
2018-06-15T19:38:26.152Z,23.40
2018-06-15T19:38:59.169Z,23.40
2018-06-15T19:39:32.217Z,23.40
2018-06-15T19:40:05.468Z,23.40
2018-06-15T19:40:38.651Z,23.40
2018-06-15T19:41:11.693Z,23.40
2018-06-15T19:41:44.742Z,23.30
2018-06-15T19:42:18.529Z,23.30
2018-06-15T19:42:51.584Z,23.30
2018-06-15T19:43:24.625Z,23.30
2018-06-15T19:43:58.174Z,23.30
2018-06-15T19:44:31.211Z,23.30
2018-06-15T19:45:04.287Z,23.20
2018-06-15T19:45:37.307Z,23.20
2018-06-15T19:46:10.335Z,23.20
2018-06-15T19:46:43.404Z,23.20
2018-06-15T19:47:16.459Z,23.20
2018-06-15T19:47:49.520Z,23.20
2018-06-15T19:48:22.555Z,23.20
2018-06-15T19:48:55.764Z,23.10
2018-06-15T19:49:28.864Z,23.10
2018-06-15T19:50:01.893Z,23.10
2018-06-15T19:50:34.940Z,23.10
2018-06-15T19:51:07.956Z,23.10
2018-06-15T19:51:40.987Z,23.10
2018-06-15T19:52:14.025Z,23.10
2018-06-15T19:52:47.080Z,23.00
2018-06-15T19:53:20.889Z,23.00
2018-06-15T19:53:53.917Z,23.00
2018-06-15T19:54:26.944Z,23.00
2018-06-15T19:54:59.975Z,23.00
2018-06-15T19:55:33.007Z,23.00
2018-06-15T19:56:06.065Z,23.00
2018-06-15T19:56:39.096Z,23.00
2018-06-15T19:57:12.123Z,23.00
2018-06-15T19:57:45.188Z,22.90
2018-06-15T19:58:18.231Z,22.90
2018-06-15T19:58:52.078Z,22.90
2018-06-15T19:59:25.832Z,22.90
2018-06-15T19:59:58.860Z,22.90
2018-06-15T20:00:32.756Z,22.90
2018-06-15T20:01:05.787Z,22.90
2018-06-15T20:01:38.818Z,22.90
2018-06-15T20:02:11.839Z,22.90
2018-06-15T20:02:44.937Z,22.90
2018-06-15T20:03:17.972Z,22.80
2018-06-15T20:03:51.012Z,22.80
2018-06-15T20:04:24.062Z,22.80
2018-06-15T20:04:57.077Z,22.80
2018-06-15T20:05:30.114Z,22.80
2018-06-15T20:06:03.912Z,22.80
2018-06-15T20:06:36.949Z,22.70
2018-06-15T20:07:10.001Z,22.70
2018-06-15T20:07:43.045Z,22.70
2018-06-15T20:08:16.123Z,22.70
2018-06-15T20:08:49.217Z,22.70
2018-06-15T20:09:22.255Z,22.70
2018-06-15T20:09:55.295Z,22.70
2018-06-15T20:10:28.327Z,22.70
2018-06-15T20:11:01.357Z,22.60
2018-06-15T20:11:34.400Z,22.60
2018-06-15T20:12:07.431Z,22.60
2018-06-15T20:12:40.475Z,22.60
2018-06-15T20:13:13.520Z,22.60
2018-06-15T20:13:46.559Z,22.60
2018-06-15T20:14:19.599Z,22.60
2018-06-15T20:14:52.629Z,22.60
2018-06-15T20:15:25.661Z,22.50
2018-06-15T20:15:58.701Z,22.50
2018-06-15T20:16:32.497Z,22.50
2018-06-15T20:17:05.578Z,22.40
2018-06-15T20:17:38.611Z,22.50
2018-06-15T20:18:11.698Z,22.50
2018-06-15T20:18:44.751Z,22.50
2018-06-15T20:19:17.747Z,22.40
2018-06-15T20:19:50.768Z,22.40
2018-06-15T20:20:23.811Z,22.40
2018-06-15T20:20:56.848Z,22.40
2018-06-15T20:21:29.905Z,22.40
2018-06-15T20:22:02.936Z,22.40
2018-06-15T20:22:35.972Z,22.40
2018-06-15T20:23:09.017Z,22.40
2018-06-15T20:23:42.064Z,22.40
2018-06-15T20:24:15.863Z,22.30
2018-06-15T20:24:49.672Z,22.30
2018-06-15T20:25:22.716Z,22.30
2018-06-15T20:25:56.520Z,22.30
2018-06-15T20:26:30.315Z,22.30
2018-06-15T20:27:03.348Z,22.30
2018-06-15T20:27:36.513Z,22.30
2018-06-15T20:28:09.540Z,22.30
2018-06-15T20:28:43.351Z,22.20
2018-06-15T20:29:16.401Z,22.20
2018-06-15T20:29:50.205Z,22.20
2018-06-15T20:30:23.243Z,22.20
2018-06-15T20:30:56.288Z,22.20
2018-06-15T20:31:29.329Z,22.20
2018-06-15T20:32:02.364Z,22.20
2018-06-15T20:32:35.408Z,22.20
2018-06-15T20:33:08.464Z,22.20
2018-06-15T20:33:41.484Z,22.10
2018-06-15T20:34:14.539Z,22.10
2018-06-15T20:34:47.616Z,22.10
2018-06-15T20:35:20.640Z,22.10
2018-06-15T20:35:53.696Z,22.10
2018-06-15T20:36:26.732Z,22.10
2018-06-15T20:36:59.783Z,22.10
2018-06-15T20:37:32.820Z,22.10
2018-06-15T20:38:05.873Z,22.00
2018-06-15T20:38:38.916Z,22.00
2018-06-15T20:39:11.956Z,22.00
2018-06-15T20:39:45.000Z,22.00
2018-06-15T20:40:18.045Z,22.00
2018-06-15T20:40:51.078Z,22.00
2018-06-15T20:41:24.878Z,22.00
2018-06-15T20:41:59.561Z,21.90
2018-06-15T20:42:32.618Z,21.90
2018-06-15T20:43:05.706Z,22.00
2018-06-15T20:43:38.857Z,22.00
2018-06-15T20:44:11.906Z,21.90
2018-06-15T20:44:45.716Z,21.90
2018-06-15T20:45:18.756Z,21.90
2018-06-15T20:45:52.544Z,21.90
2018-06-15T20:46:26.369Z,21.90
2018-06-15T20:46:59.424Z,21.90
2018-06-15T20:47:32.453Z,21.90
2018-06-15T20:48:05.547Z,21.90
2018-06-15T20:48:38.595Z,21.90
2018-06-15T20:49:11.667Z,21.80
2018-06-15T20:49:44.683Z,21.80
2018-06-15T20:50:17.740Z,21.80
2018-06-15T20:50:50.789Z,21.80
2018-06-15T20:51:23.815Z,21.80
2018-06-15T20:51:56.834Z,21.80
2018-06-15T20:52:30.900Z,21.80
2018-06-15T20:53:03.998Z,21.70
2018-06-15T20:53:37.016Z,21.80
2018-06-15T20:54:10.060Z,21.70
2018-06-15T20:54:43.100Z,21.80
2018-06-15T20:55:16.904Z,21.70
2018-06-15T20:55:49.941Z,21.70
2018-06-15T20:56:22.990Z,21.70
2018-06-15T20:56:56.052Z,21.70
2018-06-15T20:57:29.089Z,21.70
2018-06-15T20:58:02.906Z,21.70
2018-06-15T20:58:36.017Z,21.70
2018-06-15T20:59:10.024Z,21.60
2018-06-15T20:59:43.065Z,21.60
2018-06-15T21:00:16.100Z,21.60
2018-06-15T21:00:49.169Z,21.60
2018-06-15T21:01:23.012Z,21.60
2018-06-15T21:01:56.057Z,21.60
2018-06-15T21:02:29.296Z,21.60
2018-06-15T21:03:02.334Z,21.60
2018-06-15T21:03:35.376Z,21.60
2018-06-15T21:04:08.415Z,21.50
2018-06-15T21:04:41.776Z,21.50
2018-06-15T21:05:14.789Z,21.50
2018-06-15T21:05:47.814Z,21.50
2018-06-15T21:06:21.591Z,21.50
2018-06-15T21:06:54.664Z,21.50
2018-06-15T21:07:27.706Z,21.50
2018-06-15T21:08:00.768Z,21.50
2018-06-15T21:08:33.828Z,21.50
2018-06-15T21:09:06.907Z,21.50
2018-06-15T21:09:39.948Z,21.50
2018-06-15T21:10:12.988Z,21.40
2018-06-15T21:10:46.016Z,21.50
2018-06-15T21:11:19.071Z,21.50
2018-06-15T21:11:52.095Z,21.40
2018-06-15T21:12:25.144Z,21.40
2018-06-15T21:12:58.163Z,21.40
2018-06-15T21:13:31.215Z,21.40
2018-06-15T21:14:04.268Z,21.40
2018-06-15T21:14:37.314Z,21.30
2018-06-15T21:15:10.336Z,21.30
2018-06-15T21:15:43.389Z,21.30
2018-06-15T21:16:16.428Z,21.30
2018-06-15T21:16:49.513Z,21.30
2018-06-15T21:17:22.548Z,21.30
2018-06-15T21:17:55.683Z,21.30
2018-06-15T21:18:28.739Z,21.30
2018-06-15T21:19:01.780Z,21.30
2018-06-15T21:19:35.580Z,21.20
2018-06-15T21:20:09.388Z,21.20
2018-06-15T21:20:42.414Z,21.20
2018-06-15T21:21:15.472Z,21.20
2018-06-15T21:21:48.545Z,21.20
2018-06-15T21:22:21.568Z,21.20
2018-06-15T21:22:54.591Z,21.20
2018-06-15T21:23:27.653Z,21.20
2018-06-15T21:24:00.693Z,21.20
2018-06-15T21:24:33.730Z,21.20
2018-06-15T21:25:06.759Z,21.10
2018-06-15T21:25:39.800Z,21.10
2018-06-15T21:26:12.840Z,21.20
2018-06-15T21:26:45.871Z,21.20
2018-06-15T21:27:19.711Z,21.10
2018-06-15T21:27:52.880Z,21.10
2018-06-15T21:28:25.923Z,21.10
2018-06-15T21:28:58.973Z,21.10
2018-06-15T21:29:32.011Z,21.10
2018-06-15T21:30:05.052Z,21.10
2018-06-15T21:30:38.097Z,21.10
2018-06-15T21:31:11.131Z,21.10
2018-06-15T21:31:44.164Z,21.00
2018-06-15T21:32:17.204Z,21.00
2018-06-15T21:32:50.240Z,21.10
2018-06-15T21:33:23.292Z,21.00
2018-06-15T21:33:57.132Z,21.00
2018-06-15T21:34:30.166Z,21.00
2018-06-15T21:35:04.187Z,21.00
2018-06-15T21:35:37.220Z,21.00
2018-06-15T21:36:10.256Z,21.00
2018-06-15T21:36:43.277Z,20.90
2018-06-15T21:37:17.068Z,21.00
2018-06-15T21:37:50.868Z,21.00
2018-06-15T21:38:23.927Z,20.90
2018-06-15T21:38:57.004Z,20.90
2018-06-15T21:39:30.037Z,20.90
2018-06-15T21:40:03.085Z,20.90
2018-06-15T21:40:36.119Z,20.90
2018-06-15T21:41:09.177Z,20.90
2018-06-15T21:41:42.212Z,20.90
2018-06-15T21:42:15.242Z,20.90
2018-06-15T21:42:48.276Z,20.90
2018-06-15T21:43:21.308Z,20.90
2018-06-15T21:43:54.346Z,20.90
2018-06-15T21:44:27.409Z,20.90
2018-06-15T21:45:00.448Z,20.90
2018-06-15T21:45:33.495Z,20.90
2018-06-15T21:46:06.536Z,20.80
2018-06-15T21:46:39.583Z,20.80
2018-06-15T21:47:12.600Z,20.80
2018-06-15T21:47:45.644Z,20.80
2018-06-15T21:48:19.458Z,20.80
2018-06-15T21:48:52.497Z,20.80
2018-06-15T21:49:25.542Z,20.80
2018-06-15T21:49:59.356Z,20.80
2018-06-15T21:50:32.405Z,20.70
2018-06-15T21:51:05.444Z,20.80
2018-06-15T21:51:38.455Z,20.80
2018-06-15T21:52:12.272Z,20.70
2018-06-15T21:52:45.311Z,20.70
2018-06-15T21:53:18.332Z,20.70
2018-06-15T21:53:51.385Z,20.70
2018-06-15T21:54:25.381Z,20.70
2018-06-15T21:54:59.183Z,20.70
2018-06-15T21:55:32.233Z,20.70
2018-06-15T21:56:06.032Z,20.70
2018-06-15T21:56:39.051Z,20.70
2018-06-15T21:57:12.083Z,20.70
2018-06-15T21:57:45.908Z,20.70
2018-06-15T21:58:18.937Z,20.60
2018-06-15T21:58:51.992Z,20.70
2018-06-15T21:59:25.036Z,20.60
2018-06-15T21:59:58.056Z,20.60
2018-06-15T22:00:31.096Z,20.60
2018-06-15T22:01:04.180Z,20.60
2018-06-15T22:01:37.210Z,20.60
2018-06-15T22:02:11.027Z,20.60
2018-06-15T22:02:44.053Z,20.60
2018-06-15T22:03:17.083Z,20.60
2018-06-15T22:03:50.115Z,20.60
2018-06-15T22:04:23.177Z,20.60
2018-06-15T22:04:56.277Z,20.60
2018-06-15T22:05:29.271Z,20.60
2018-06-15T22:06:02.311Z,20.60
2018-06-15T22:06:35.339Z,20.60
2018-06-15T22:07:08.371Z,20.50
2018-06-15T22:07:42.182Z,20.50
2018-06-15T22:08:15.204Z,20.50
2018-06-15T22:08:48.272Z,20.50
2018-06-15T22:09:21.315Z,20.50
2018-06-15T22:09:54.373Z,20.50
2018-06-15T22:10:27.427Z,20.50
2018-06-15T22:11:01.241Z,20.50
2018-06-15T22:11:34.249Z,20.50
2018-06-15T22:12:07.288Z,20.50
2018-06-15T22:12:40.483Z,20.50
2018-06-15T22:13:13.671Z,20.30
2018-06-15T22:13:46.723Z,20.50
2018-06-15T22:14:19.759Z,20.50
2018-06-15T22:14:52.796Z,20.50
2018-06-15T22:15:25.851Z,20.50
2018-06-15T22:15:59.628Z,20.50
2018-06-15T22:16:32.664Z,20.50
2018-06-15T22:17:05.713Z,20.40
2018-06-15T22:17:38.777Z,20.40
2018-06-15T22:18:11.764Z,20.40
2018-06-15T22:18:44.798Z,20.40
2018-06-15T22:19:18.627Z,20.40
2018-06-15T22:19:51.677Z,20.40
2018-06-15T22:20:24.695Z,20.40
2018-06-15T22:20:57.717Z,20.40
2018-06-15T22:21:31.544Z,20.30
2018-06-15T22:22:04.728Z,20.30
2018-06-15T22:22:37.779Z,20.40
2018-06-15T22:23:11.603Z,20.30
2018-06-15T22:23:44.647Z,20.30
2018-06-15T22:24:17.699Z,20.30
2018-06-15T22:24:50.712Z,20.40
2018-06-15T22:25:23.753Z,20.30
2018-06-15T22:25:57.585Z,20.30
2018-06-15T22:26:31.351Z,20.30
2018-06-15T22:27:04.391Z,20.30
2018-06-15T22:27:37.656Z,20.30
2018-06-15T22:28:10.675Z,20.30
2018-06-15T22:28:43.924Z,20.30
2018-06-15T22:29:17.186Z,20.30
2018-06-15T22:29:50.231Z,20.30
2018-06-15T22:30:23.258Z,20.30
2018-06-15T22:30:56.284Z,20.30
2018-06-15T22:31:29.324Z,20.20
2018-06-15T22:32:02.374Z,20.20
2018-06-15T22:32:35.405Z,20.20
2018-06-15T22:33:08.481Z,20.20
2018-06-15T22:33:41.520Z,20.20
2018-06-15T22:34:14.567Z,20.20
2018-06-15T22:34:47.614Z,20.20
2018-06-15T22:35:21.419Z,20.20
2018-06-15T22:35:54.472Z,20.10
2018-06-15T22:36:27.517Z,20.20
2018-06-15T22:37:01.309Z,20.20
2018-06-15T22:37:35.136Z,20.20
2018-06-15T22:38:08.163Z,20.10
2018-06-15T22:38:41.183Z,20.20
2018-06-15T22:39:14.212Z,20.20
2018-06-15T22:39:48.032Z,20.20
2018-06-15T22:40:21.060Z,20.10
2018-06-15T22:40:54.111Z,20.10
2018-06-15T22:41:27.367Z,20.10
2018-06-15T22:42:00.411Z,20.10
2018-06-15T22:42:33.458Z,20.10
2018-06-15T22:43:07.264Z,20.10
2018-06-15T22:43:40.302Z,20.10
2018-06-15T22:44:13.336Z,20.10
2018-06-15T22:44:47.157Z,20.10
2018-06-15T22:45:20.210Z,20.00
2018-06-15T22:45:54.004Z,20.10
2018-06-15T22:46:27.812Z,20.10
2018-06-15T22:47:00.849Z,20.10
2018-06-15T22:47:33.871Z,20.10
2018-06-15T22:48:06.933Z,20.10
2018-06-15T22:48:39.956Z,20.10
2018-06-15T22:49:13.001Z,20.10
2018-06-15T22:49:46.045Z,20.10
2018-06-15T22:50:19.080Z,20.00
2018-06-15T22:50:52.104Z,20.00
2018-06-15T22:51:25.145Z,20.00
2018-06-15T22:51:58.951Z,20.00
2018-06-15T22:52:32.744Z,20.00
2018-06-15T22:53:06.567Z,20.00
2018-06-15T22:53:40.340Z,20.00
2018-06-15T22:54:14.123Z,20.00
2018-06-15T22:54:47.180Z,20.00
2018-06-15T22:55:20.217Z,19.90
2018-06-15T22:55:53.231Z,19.90
2018-06-15T22:56:27.028Z,19.90
2018-06-15T22:57:00.834Z,19.90
2018-06-15T22:57:33.855Z,19.90
2018-06-15T22:58:07.675Z,19.90
2018-06-15T22:58:40.731Z,19.90
2018-06-15T22:59:13.779Z,19.90
2018-06-15T22:59:46.843Z,19.90
2018-06-15T23:00:19.895Z,19.90
2018-06-15T23:00:53.695Z,19.90
2018-06-15T23:01:26.736Z,19.90
2018-06-15T23:01:59.797Z,19.90
2018-06-15T23:02:32.831Z,19.90
2018-06-15T23:03:06.145Z,19.90
2018-06-15T23:03:39.184Z,19.90
2018-06-15T23:04:12.226Z,19.90
2018-06-15T23:04:45.264Z,19.90
2018-06-15T23:05:18.324Z,19.90
2018-06-15T23:05:51.504Z,19.90
2018-06-15T23:06:24.568Z,19.90
2018-06-15T23:06:57.622Z,19.90
2018-06-15T23:07:31.411Z,19.80
2018-06-15T23:08:05.207Z,19.90
2018-06-15T23:08:39.007Z,19.80
2018-06-15T23:09:12.204Z,19.90
2018-06-15T23:09:45.276Z,19.90
2018-06-15T23:10:18.324Z,19.90
2018-06-15T23:10:51.354Z,19.90
2018-06-15T23:11:24.392Z,19.90
2018-06-15T23:11:57.812Z,19.90
2018-06-15T23:12:30.811Z,19.90
2018-06-15T23:13:04.608Z,19.80
2018-06-15T23:13:38.403Z,19.80
2018-06-15T23:14:12.211Z,19.80
2018-06-15T23:14:46.048Z,19.80
2018-06-15T23:15:19.832Z,19.80
2018-06-15T23:15:52.864Z,19.80
2018-06-15T23:16:25.887Z,19.80
2018-06-15T23:16:58.912Z,19.90
2018-06-15T23:17:32.724Z,19.80
2018-06-15T23:18:05.748Z,19.80
2018-06-15T23:18:38.779Z,19.80
2018-06-15T23:19:11.839Z,19.80
2018-06-15T23:19:44.883Z,19.70
2018-06-15T23:20:18.027Z,19.80
2018-06-15T23:20:51.048Z,19.80
2018-06-15T23:21:24.186Z,19.80
2018-06-15T23:21:57.219Z,19.80
2018-06-15T23:22:30.243Z,19.80
2018-06-15T23:23:03.284Z,19.80
2018-06-15T23:23:37.093Z,19.70
2018-06-15T23:24:10.124Z,19.80
2018-06-15T23:24:43.151Z,19.70
2018-06-15T23:25:16.225Z,19.70
2018-06-15T23:25:49.228Z,19.70
2018-06-15T23:26:22.257Z,19.70
2018-06-15T23:26:55.293Z,19.70
2018-06-15T23:27:29.102Z,19.70
2018-06-15T23:28:02.146Z,19.70
2018-06-15T23:28:35.188Z,19.70
2018-06-15T23:29:08.220Z,19.70
2018-06-15T23:29:41.262Z,19.70
2018-06-15T23:30:14.293Z,19.70
2018-06-15T23:30:47.335Z,19.70
2018-06-15T23:31:21.132Z,19.70
2018-06-15T23:31:54.932Z,19.70
2018-06-15T23:32:27.956Z,19.70
2018-06-15T23:33:00.982Z,19.70
2018-06-15T23:33:34.008Z,19.70
2018-06-15T23:34:07.056Z,19.70
2018-06-15T23:34:40.091Z,19.70
2018-06-15T23:35:13.128Z,19.70
2018-06-15T23:35:46.177Z,19.70
2018-06-15T23:36:19.212Z,19.70
2018-06-15T23:36:53.045Z,19.70
2018-06-15T23:37:26.067Z,19.70
2018-06-15T23:37:59.094Z,19.70
2018-06-15T23:38:32.259Z,19.70
2018-06-15T23:39:06.057Z,19.70
2018-06-15T23:39:39.076Z,19.70
2018-06-15T23:40:12.109Z,19.60
2018-06-15T23:40:45.161Z,19.60
2018-06-15T23:41:18.226Z,19.60
2018-06-15T23:41:51.354Z,19.60
2018-06-15T23:42:24.402Z,19.60
2018-06-15T23:42:57.424Z,19.60
2018-06-15T23:43:30.469Z,19.60
2018-06-15T23:44:03.840Z,19.60
2018-06-15T23:44:36.864Z,19.60
2018-06-15T23:45:09.996Z,19.70
2018-06-15T23:45:43.043Z,19.70
2018-06-15T23:46:16.062Z,19.70
2018-06-15T23:46:49.097Z,19.70
2018-06-15T23:47:22.884Z,19.70
2018-06-15T23:47:56.686Z,19.70
2018-06-15T23:48:29.707Z,19.70
2018-06-15T23:49:02.847Z,19.70
2018-06-15T23:49:35.895Z,19.70
2018-06-15T23:50:09.697Z,19.70
2018-06-15T23:50:42.834Z,19.70
2018-06-15T23:51:15.874Z,19.70
2018-06-15T23:51:48.916Z,19.70
2018-06-15T23:52:22.009Z,19.70
2018-06-15T23:52:55.060Z,19.80
2018-06-15T23:53:29.193Z,19.70
2018-06-15T23:54:02.288Z,19.70
2018-06-15T23:54:35.314Z,19.80
2018-06-15T23:55:08.335Z,19.80
2018-06-15T23:55:41.420Z,19.80
2018-06-15T23:56:14.467Z,19.80
2018-06-15T23:56:47.479Z,19.80
2018-06-15T23:57:20.508Z,19.80
2018-06-15T23:57:53.533Z,19.70
2018-06-15T23:58:26.684Z,19.70
2018-06-15T23:58:59.703Z,19.70
2018-06-15T23:59:32.743Z,19.80
